createdAt,value
2023-04-27T00:01:15.116Z,1.44
2023-04-27T00:03:42.401Z,1.50
2023-04-27T00:06:12.420Z,1.44
2023-04-27T00:08:39.008Z,1.38
2023-04-27T00:11:05.886Z,1.25
2023-04-27T00:13:32.457Z,1.19
2023-04-27T00:16:03.208Z,1.19
2023-04-27T00:18:31.111Z,1.25
2023-04-27T00:20:58.540Z,1.00
2023-04-27T00:23:26.231Z,0.94
2023-04-27T00:25:52.859Z,0.94
2023-04-27T00:28:19.428Z,0.94
2023-04-27T00:30:46.406Z,0.75
2023-04-27T00:33:13.200Z,0.81
2023-04-27T00:35:39.812Z,0.81
2023-04-27T00:38:06.399Z,0.75
2023-04-27T00:40:32.952Z,0.75
2023-04-27T00:42:59.908Z,0.69
2023-04-27T00:45:26.495Z,0.81
2023-04-27T00:47:53.592Z,0.88
2023-04-27T00:50:29.937Z,0.88
2023-04-27T00:52:56.901Z,0.75
2023-04-27T00:55:24.121Z,0.75
2023-04-27T00:57:50.967Z,0.81
2023-04-27T01:00:17.936Z,0.81
2023-04-27T01:02:44.679Z,0.75
2023-04-27T01:05:12.491Z,0.69
2023-04-27T01:07:39.870Z,0.69
2023-04-27T01:10:07.547Z,0.50
2023-04-27T01:12:34.211Z,0.38
2023-04-27T01:15:00.913Z,0.44
2023-04-27T01:17:27.686Z,0.56
2023-04-27T01:19:55.432Z,0.69
2023-04-27T01:22:22.082Z,0.63
2023-04-27T01:24:48.649Z,0.75
2023-04-27T01:27:15.229Z,0.75
2023-04-27T01:29:41.875Z,0.75
2023-04-27T01:32:08.607Z,0.56
2023-04-27T01:34:35.548Z,0.94
2023-04-27T01:37:02.634Z,0.94
2023-04-27T01:39:29.183Z,0.88
2023-04-27T01:41:57.860Z,0.63
2023-04-27T01:44:25.122Z,0.50
2023-04-27T01:46:51.738Z,0.44
2023-04-27T01:49:18.244Z,0.31
2023-04-27T01:51:44.748Z,0.25
2023-04-27T01:54:11.494Z,0.31
2023-04-27T01:56:38.105Z,0.31
2023-04-27T01:59:04.774Z,0.44
2023-04-27T02:01:31.402Z,0.44
2023-04-27T02:03:58.176Z,0.38
2023-04-27T02:06:24.926Z,0.44
2023-04-27T02:08:51.622Z,0.44
2023-04-27T02:11:18.125Z,0.50
2023-04-27T02:13:44.694Z,0.44
2023-04-27T02:16:11.289Z,0.31
2023-04-27T02:18:38.510Z,0.31
2023-04-27T02:21:09.832Z,0.31
2023-04-27T02:23:36.674Z,0.19
2023-04-27T02:26:03.605Z,0.13
2023-04-27T02:28:30.122Z,0.13
2023-04-27T02:30:57.114Z,0.13
2023-04-27T02:33:23.672Z,0.13
2023-04-27T02:35:50.471Z,0.06
2023-04-27T02:38:17.106Z,0.00
2023-04-27T02:40:43.674Z,0.06
2023-04-27T02:43:10.545Z,0.06
2023-04-27T02:45:38.283Z,0.06
2023-04-27T02:48:04.992Z,-0.13
2023-04-27T02:50:31.626Z,-0.13
2023-04-27T02:52:58.216Z,-0.06
2023-04-27T02:55:24.781Z,-0.13
2023-04-27T02:57:51.420Z,-0.19
2023-04-27T03:00:18.870Z,-0.19
2023-04-27T03:02:46.132Z,-0.19
2023-04-27T03:05:12.870Z,-0.25
2023-04-27T03:07:39.386Z,-0.25
2023-04-27T03:10:06.194Z,-0.19
2023-04-27T03:12:32.757Z,-0.25
2023-04-27T03:14:59.832Z,-0.19
2023-04-27T03:17:27.226Z,-0.25
2023-04-27T03:19:54.118Z,-0.25
2023-04-27T03:22:20.686Z,-0.31
2023-04-27T03:24:47.196Z,-0.38
2023-04-27T03:27:13.868Z,-0.31
2023-04-27T03:29:40.443Z,-0.31
2023-04-27T03:32:07.192Z,-0.25
2023-04-27T03:34:33.856Z,-0.25
2023-04-27T03:37:00.675Z,-0.19
2023-04-27T03:39:27.675Z,-0.19
2023-04-27T03:41:54.324Z,-0.31
2023-04-27T03:44:21.229Z,-0.38
2023-04-27T03:46:47.790Z,-0.38
2023-04-27T03:49:14.593Z,-0.31
2023-04-27T03:51:42.404Z,-0.44
2023-04-27T03:54:09.949Z,-0.44
2023-04-27T03:56:37.066Z,-0.44
2023-04-27T03:59:06.626Z,-0.44
2023-04-27T04:01:34.131Z,-0.44
2023-04-27T04:04:01.123Z,-0.38
2023-04-27T04:06:28.089Z,-0.38
2023-04-27T04:08:55.415Z,-0.38
2023-04-27T04:11:22.407Z,-0.31
2023-04-27T04:13:48.966Z,-0.19
2023-04-27T04:16:15.541Z,-0.19
2023-04-27T04:18:42.166Z,-0.13
2023-04-27T04:21:10.666Z,-0.13
2023-04-27T04:23:37.971Z,-0.06
2023-04-27T04:26:04.772Z,-0.19
2023-04-27T04:28:31.494Z,0.00
2023-04-27T04:30:59.037Z,-0.19
2023-04-27T04:33:26.226Z,-0.25
2023-04-27T04:35:53.520Z,-0.19
2023-04-27T04:38:20.101Z,-0.06
2023-04-27T04:40:46.666Z,-0.19
2023-04-27T04:43:13.412Z,-0.31
2023-04-27T04:45:40.140Z,-0.25
2023-04-27T04:48:06.768Z,-0.38
2023-04-27T04:50:33.509Z,-0.31
2023-04-27T04:53:00.021Z,-0.13
2023-04-27T04:55:28.294Z,-0.06
2023-04-27T04:57:54.916Z,0.06
2023-04-27T05:00:22.311Z,0.00
2023-04-27T05:02:48.948Z,0.00
2023-04-27T05:05:15.967Z,0.00
2023-04-27T05:07:43.023Z,0.00
2023-04-27T05:10:09.675Z,-0.06
2023-04-27T05:12:36.241Z,0.00
2023-04-27T05:15:03.489Z,-0.06
2023-04-27T05:17:30.075Z,0.00
2023-04-27T05:19:56.716Z,0.13
2023-04-27T05:22:23.293Z,0.31
2023-04-27T05:24:49.803Z,0.50
2023-04-27T05:27:17.083Z,0.63
2023-04-27T05:29:44.276Z,0.75
2023-04-27T05:32:10.896Z,0.81
2023-04-27T05:34:37.484Z,1.00
2023-04-27T05:37:04.052Z,1.00
2023-04-27T05:39:30.685Z,0.94
2023-04-27T05:41:57.502Z,1.19
2023-04-27T05:44:28.262Z,1.50
2023-04-27T05:46:56.065Z,1.81
2023-04-27T05:49:22.983Z,1.94
2023-04-27T05:51:49.636Z,2.06
2023-04-27T05:54:16.400Z,2.25
2023-04-27T05:56:43.000Z,2.31
2023-04-27T05:59:09.865Z,2.38
2023-04-27T06:01:36.788Z,2.63
2023-04-27T06:04:03.866Z,2.56
2023-04-27T06:06:35.350Z,2.69
2023-04-27T06:09:02.040Z,2.69
2023-04-27T06:11:28.690Z,2.94
2023-04-27T06:13:55.345Z,3.13
2023-04-27T06:16:22.079Z,3.25
2023-04-27T06:18:50.666Z,3.44
2023-04-27T06:21:17.882Z,3.56
2023-04-27T06:23:44.516Z,3.69
2023-04-27T06:26:11.517Z,3.81
2023-04-27T06:28:38.285Z,3.75
2023-04-27T06:31:05.251Z,3.88
2023-04-27T06:33:31.848Z,4.06
2023-04-27T06:35:58.562Z,4.38
2023-04-27T06:38:25.129Z,4.44
2023-04-27T06:40:53.171Z,4.63
2023-04-27T06:43:19.821Z,4.88
2023-04-27T06:45:46.532Z,4.94
2023-04-27T06:48:13.263Z,5.19
2023-04-27T06:50:39.932Z,5.19
2023-04-27T06:53:06.508Z,5.63
2023-04-27T06:55:33.124Z,5.88
2023-04-27T06:57:59.706Z,6.13
2023-04-27T07:00:27.216Z,6.25
2023-04-27T07:02:53.870Z,6.25
2023-04-27T07:05:20.754Z,6.31
2023-04-27T07:07:47.448Z,6.50
2023-04-27T07:10:14.031Z,6.38
2023-04-27T07:12:41.841Z,6.75
2023-04-27T07:15:09.122Z,6.63
2023-04-27T07:17:35.704Z,6.81
2023-04-27T07:20:04.362Z,6.88
2023-04-27T07:22:30.961Z,7.13
2023-04-27T07:24:57.518Z,7.25
2023-04-27T07:27:24.566Z,7.50
2023-04-27T07:29:51.063Z,7.31
2023-04-27T07:32:17.824Z,7.44
2023-04-27T07:34:52.738Z,7.50
2023-04-27T07:37:20.008Z,7.56
2023-04-27T07:39:47.320Z,7.88
2023-04-27T07:42:13.868Z,7.88
2023-04-27T07:44:40.786Z,7.75
2023-04-27T07:47:07.598Z,7.94
2023-04-27T07:49:35.493Z,8.06
2023-04-27T07:52:02.076Z,8.25
2023-04-27T07:54:28.661Z,8.31
2023-04-27T07:56:55.259Z,8.56
2023-04-27T07:59:22.125Z,8.75
2023-04-27T08:01:48.701Z,8.56
2023-04-27T08:04:16.256Z,8.38
2023-04-27T08:06:44.681Z,8.63
2023-04-27T08:09:11.798Z,8.69
2023-04-27T08:11:38.502Z,8.88
2023-04-27T08:14:05.083Z,8.69
2023-04-27T08:16:32.068Z,8.63
2023-04-27T08:19:00.449Z,8.63
2023-04-27T08:21:28.408Z,8.81
2023-04-27T08:23:54.980Z,8.94
2023-04-27T08:26:23.413Z,9.06
2023-04-27T08:28:51.036Z,8.94
2023-04-27T08:31:17.611Z,9.06
2023-04-27T08:33:44.358Z,9.69
2023-04-27T08:36:10.883Z,9.69
2023-04-27T08:38:37.480Z,9.63
2023-04-27T08:41:18.128Z,9.31
2023-04-27T08:43:51.237Z,9.38
2023-04-27T08:46:21.412Z,9.31
2023-04-27T08:48:52.119Z,9.56
2023-04-27T08:51:20.006Z,9.31
2023-04-27T08:53:52.232Z,9.94
2023-04-27T08:56:20.062Z,9.56
2023-04-27T08:58:46.721Z,9.81
2023-04-27T09:01:13.289Z,9.81
2023-04-27T09:03:39.970Z,9.94
2023-04-27T09:06:07.606Z,9.75
2023-04-27T09:08:51.086Z,10.38
2023-04-27T09:11:33.884Z,10.19
2023-04-27T09:14:17.805Z,9.88
2023-04-27T09:16:44.712Z,10.38
2023-04-27T09:19:11.977Z,10.38
2023-04-27T09:21:38.749Z,10.94
2023-04-27T09:24:12.810Z,10.44
2023-04-27T09:26:39.934Z,10.88
2023-04-27T09:29:06.441Z,10.69
2023-04-27T09:31:36.892Z,10.69
2023-04-27T09:34:04.241Z,11.06
2023-04-27T09:36:32.593Z,10.81
2023-04-27T09:39:04.636Z,11.00
2023-04-27T09:41:32.513Z,11.00
2023-04-27T09:43:59.187Z,11.00
2023-04-27T09:46:26.539Z,10.94
2023-04-27T09:48:54.501Z,11.19
2023-04-27T09:51:21.063Z,10.88
2023-04-27T09:53:54.132Z,10.88
2023-04-27T09:56:39.029Z,11.56
2023-04-27T09:59:08.671Z,12.13
2023-04-27T10:01:41.848Z,12.19
2023-04-27T10:04:23.904Z,11.31
2023-04-27T10:07:00.128Z,10.75
2023-04-27T10:09:30.401Z,11.19
2023-04-27T10:11:56.963Z,11.69
2023-04-27T10:14:24.590Z,10.94
2023-04-27T10:16:56.528Z,11.31
2023-04-27T10:19:24.391Z,11.50
2023-04-27T10:21:52.538Z,11.25
2023-04-27T10:24:19.310Z,11.06
2023-04-27T10:26:47.958Z,11.25
2023-04-27T10:29:16.491Z,11.44
2023-04-27T10:31:45.004Z,11.38
2023-04-27T10:34:18.040Z,11.19
2023-04-27T10:36:46.326Z,11.19
2023-04-27T10:39:17.712Z,11.56
2023-04-27T10:41:56.104Z,12.06
2023-04-27T10:44:30.941Z,11.88
2023-04-27T10:46:59.768Z,11.38
2023-04-27T10:49:29.835Z,11.19
2023-04-27T10:52:00.815Z,12.00
2023-04-27T10:54:28.646Z,12.69
2023-04-27T10:57:11.347Z,11.94
2023-04-27T10:59:56.004Z,11.81
2023-04-27T11:02:28.234Z,12.50
2023-04-27T11:04:56.574Z,12.06
2023-04-27T11:07:28.046Z,11.88
2023-04-27T11:09:54.812Z,12.19
2023-04-27T11:12:21.577Z,12.50
2023-04-27T11:14:48.175Z,12.94
2023-04-27T11:17:14.820Z,13.00
2023-04-27T11:19:47.735Z,13.00
2023-04-27T11:22:18.933Z,12.06
2023-04-27T11:24:49.507Z,12.19
2023-04-27T11:27:16.611Z,12.50
2023-04-27T11:29:43.937Z,12.25
2023-04-27T11:32:20.850Z,12.19
2023-04-27T11:34:53.562Z,12.31
2023-04-27T11:37:24.126Z,12.44
2023-04-27T11:39:51.717Z,12.88
2023-04-27T11:42:23.804Z,12.44
2023-04-27T11:44:55.484Z,12.50
2023-04-27T11:47:23.198Z,12.75
2023-04-27T11:49:52.138Z,12.44
2023-04-27T11:52:19.135Z,12.44
2023-04-27T11:54:53.157Z,12.81
2023-04-27T11:57:27.039Z,12.13
2023-04-27T11:59:55.723Z,12.81
2023-04-27T12:02:23.358Z,12.50
2023-04-27T12:04:51.612Z,13.13
2023-04-27T12:07:19.072Z,13.13
2023-04-27T12:09:45.979Z,12.56
2023-04-27T12:12:13.956Z,12.50
2023-04-27T12:14:40.586Z,12.88
2023-04-27T12:17:07.514Z,12.38
2023-04-27T12:19:34.164Z,12.38
2023-04-27T12:22:00.715Z,13.13
2023-04-27T12:24:27.359Z,13.31
2023-04-27T12:26:53.923Z,13.63
2023-04-27T12:29:20.635Z,13.88
2023-04-27T12:31:47.806Z,13.44
2023-04-27T12:34:14.696Z,13.44
2023-04-27T12:36:41.524Z,13.25
2023-04-27T12:39:19.817Z,13.00
2023-04-27T12:41:47.685Z,13.19
2023-04-27T12:44:15.417Z,14.13
2023-04-27T12:46:43.565Z,14.06
2023-04-27T12:49:10.989Z,14.06
2023-04-27T12:51:38.240Z,13.63
2023-04-27T12:54:06.470Z,13.50
2023-04-27T12:56:33.963Z,13.50
2023-04-27T12:59:00.539Z,13.88
2023-04-27T13:01:28.353Z,13.06
2023-04-27T13:03:58.430Z,12.88
2023-04-27T13:06:25.533Z,13.19
2023-04-27T13:08:52.192Z,13.50
2023-04-27T13:11:19.057Z,13.56
2023-04-27T13:13:45.801Z,13.38
2023-04-27T13:16:12.863Z,13.25
2023-04-27T13:18:40.759Z,13.31
2023-04-27T13:21:08.469Z,13.00
2023-04-27T13:23:35.118Z,13.38
2023-04-27T13:26:02.248Z,14.00
2023-04-27T13:28:28.828Z,13.81
2023-04-27T13:30:55.481Z,13.38
2023-04-27T13:33:23.582Z,13.63
2023-04-27T13:35:51.492Z,13.81
2023-04-27T13:38:18.045Z,13.44
2023-04-27T13:40:44.565Z,13.13
2023-04-27T13:43:11.159Z,13.31
2023-04-27T13:45:39.589Z,13.00
2023-04-27T13:48:06.458Z,13.06
2023-04-27T13:50:33.125Z,13.94
2023-04-27T13:53:01.766Z,14.38
2023-04-27T13:55:28.836Z,14.19
2023-04-27T13:57:55.390Z,13.81
2023-04-27T14:00:22.098Z,13.75
2023-04-27T14:02:48.768Z,13.88
2023-04-27T14:05:15.378Z,14.06
2023-04-27T14:07:41.955Z,14.31
2023-04-27T14:10:08.941Z,13.75
2023-04-27T14:12:35.928Z,14.44
2023-04-27T14:15:02.658Z,14.19
2023-04-27T14:17:29.360Z,14.31
2023-04-27T14:19:55.983Z,13.88
2023-04-27T14:22:22.513Z,14.25
2023-04-27T14:24:49.015Z,14.31
2023-04-27T14:27:16.685Z,14.56
2023-04-27T14:29:43.316Z,14.56
2023-04-27T14:32:09.932Z,14.38
2023-04-27T14:34:36.739Z,14.25
2023-04-27T14:37:03.279Z,13.50
2023-04-27T14:39:29.846Z,13.69
2023-04-27T14:41:56.434Z,13.63
2023-04-27T14:44:24.002Z,13.56
2023-04-27T14:46:50.749Z,13.56
2023-04-27T14:49:17.269Z,13.88
2023-04-27T14:51:43.870Z,13.63
2023-04-27T14:54:10.857Z,13.69
2023-04-27T14:56:37.720Z,13.75
2023-04-27T14:59:05.015Z,14.13
2023-04-27T15:01:31.952Z,13.69
2023-04-27T15:03:58.728Z,13.56
2023-04-27T15:06:28.675Z,13.88
2023-04-27T15:08:55.580Z,13.69
2023-04-27T15:11:22.265Z,14.13
2023-04-27T15:13:49.089Z,14.31
2023-04-27T15:16:15.842Z,14.13
2023-04-27T15:18:43.054Z,14.06
2023-04-27T15:21:09.723Z,14.00
2023-04-27T15:23:37.257Z,14.06
2023-04-27T15:26:04.113Z,14.38
2023-04-27T15:28:33.468Z,14.00
2023-04-27T15:31:00.700Z,14.19
2023-04-27T15:33:27.388Z,13.75
2023-04-27T15:35:53.987Z,13.81
2023-04-27T15:38:20.952Z,13.81
2023-04-27T15:40:47.661Z,13.63
2023-04-27T15:43:15.009Z,13.69
2023-04-27T15:45:41.870Z,13.63
2023-04-27T15:48:08.549Z,13.94
2023-04-27T15:50:35.109Z,13.88
2023-04-27T15:53:01.834Z,13.69
2023-04-27T15:55:28.464Z,13.25
2023-04-27T15:57:55.024Z,13.44
2023-04-27T16:00:22.354Z,13.25
2023-04-27T16:02:49.351Z,13.44
2023-04-27T16:05:16.901Z,13.81
2023-04-27T16:07:44.898Z,13.50
2023-04-27T16:10:11.744Z,13.50
2023-04-27T16:12:38.537Z,13.56
2023-04-27T16:15:06.855Z,13.25
2023-04-27T16:17:38.022Z,13.25
2023-04-27T16:20:06.754Z,13.31
2023-04-27T16:22:37.295Z,13.31
2023-04-27T16:25:06.492Z,13.25
2023-04-27T16:27:33.455Z,13.00
2023-04-27T16:29:59.977Z,13.06
2023-04-27T16:32:26.914Z,13.06
2023-04-27T16:34:53.813Z,13.06
2023-04-27T16:37:20.435Z,13.06
2023-04-27T16:39:46.978Z,12.94
2023-04-27T16:42:18.495Z,12.94
2023-04-27T16:44:45.100Z,12.88
2023-04-27T16:47:11.670Z,12.88
2023-04-27T16:49:38.229Z,12.81
2023-04-27T16:52:05.234Z,12.75
2023-04-27T16:54:31.899Z,12.69
2023-04-27T16:56:58.409Z,12.69
2023-04-27T16:59:24.972Z,12.75
2023-04-27T17:01:51.988Z,12.63
2023-04-27T17:04:18.784Z,12.69
2023-04-27T17:06:47.880Z,12.75
2023-04-27T17:09:15.195Z,12.63
2023-04-27T17:11:42.160Z,12.50
2023-04-27T17:14:08.702Z,12.38
2023-04-27T17:16:35.296Z,12.50
2023-04-27T17:19:01.869Z,12.50
2023-04-27T17:21:28.382Z,12.50
2023-04-27T17:23:54.922Z,12.31
2023-04-27T17:26:21.698Z,12.44
2023-04-27T17:28:49.304Z,12.38
2023-04-27T17:31:17.471Z,12.19
2023-04-27T17:33:44.198Z,12.31
2023-04-27T17:36:11.371Z,12.13
2023-04-27T17:38:38.101Z,12.06
2023-04-27T17:41:04.754Z,12.06
2023-04-27T17:43:31.298Z,11.94
2023-04-27T17:45:57.832Z,11.94
2023-04-27T17:48:24.478Z,11.88
2023-04-27T17:50:51.186Z,11.88
2023-04-27T17:53:17.722Z,11.81
2023-04-27T17:55:45.501Z,11.69
2023-04-27T17:58:12.243Z,11.63
2023-04-27T18:00:39.034Z,11.63
2023-04-27T18:03:05.834Z,11.63
2023-04-27T18:05:32.621Z,11.75
2023-04-27T18:07:59.149Z,11.63
2023-04-27T18:10:25.666Z,11.56
2023-04-27T18:12:52.184Z,11.38
2023-04-27T18:15:19.226Z,11.31
2023-04-27T18:17:45.876Z,11.31
2023-04-27T18:20:12.485Z,11.25
2023-04-27T18:22:40.175Z,11.25
2023-04-27T18:25:08.454Z,11.25
2023-04-27T18:27:37.278Z,11.19
2023-04-27T18:30:08.407Z,11.19
2023-04-27T18:32:35.357Z,11.13
2023-04-27T18:35:02.732Z,11.06
2023-04-27T18:37:29.435Z,11.00
2023-04-27T18:39:56.008Z,11.06
2023-04-27T18:42:23.409Z,10.88
2023-04-27T18:44:54.557Z,10.81
2023-04-27T18:47:21.308Z,10.81
2023-04-27T18:49:47.902Z,10.88
2023-04-27T18:52:14.432Z,10.75
2023-04-27T18:54:41.267Z,10.56
2023-04-27T18:57:08.170Z,10.69
2023-04-27T18:59:34.833Z,10.63
2023-04-27T19:02:01.443Z,10.63
2023-04-27T19:04:28.163Z,10.56
2023-04-27T19:06:54.868Z,10.56
2023-04-27T19:09:21.551Z,10.38
2023-04-27T19:11:56.016Z,10.31
2023-04-27T19:14:26.557Z,10.19
2023-04-27T19:16:53.189Z,10.19
2023-04-27T19:19:19.862Z,10.25
2023-04-27T19:21:47.683Z,10.31
2023-04-27T19:24:14.279Z,10.31
2023-04-27T19:26:40.851Z,10.25
2023-04-27T19:29:07.730Z,10.25
2023-04-27T19:31:34.373Z,10.31
2023-04-27T19:34:04.174Z,10.13
2023-04-27T19:36:31.774Z,10.25
2023-04-27T19:38:58.280Z,10.25
2023-04-27T19:41:25.157Z,10.13
2023-04-27T19:43:51.741Z,10.06
2023-04-27T19:46:18.322Z,10.13
2023-04-27T19:48:44.954Z,10.13
2023-04-27T19:51:11.469Z,10.31
2023-04-27T19:53:38.401Z,10.19
2023-04-27T19:56:05.241Z,10.06
2023-04-27T19:58:31.942Z,10.06
2023-04-27T20:00:58.586Z,9.88
2023-04-27T20:03:25.377Z,9.94
2023-04-27T20:05:52.414Z,10.00
2023-04-27T20:08:19.309Z,9.88
2023-04-27T20:10:45.815Z,9.81
2023-04-27T20:13:12.414Z,9.81
2023-04-27T20:15:39.000Z,9.88
2023-04-27T20:18:05.663Z,9.94
2023-04-27T20:20:32.369Z,9.88
2023-04-27T20:22:58.861Z,9.94
2023-04-27T20:25:26.234Z,9.75
2023-04-27T20:27:52.802Z,9.88
2023-04-27T20:30:19.359Z,9.81
2023-04-27T20:32:46.485Z,9.69
2023-04-27T20:35:13.156Z,9.63
2023-04-27T20:37:40.072Z,9.56
2023-04-27T20:40:08.028Z,9.56
2023-04-27T20:42:34.716Z,9.75
2023-04-27T20:45:01.963Z,9.75
2023-04-27T20:47:28.573Z,9.69
2023-04-27T20:49:55.177Z,9.69
2023-04-27T20:52:21.816Z,9.63
2023-04-27T20:54:48.337Z,9.63
2023-04-27T20:57:14.916Z,9.69
2023-04-27T20:59:41.641Z,9.69
2023-04-27T21:02:08.766Z,9.75
2023-04-27T21:04:35.506Z,9.75
2023-04-27T21:07:02.143Z,9.63
2023-04-27T21:09:28.683Z,9.44
2023-04-27T21:11:55.291Z,9.50
2023-04-27T21:14:21.855Z,9.31
2023-04-27T21:16:48.520Z,9.38
2023-04-27T21:19:16.511Z,9.38
2023-04-27T21:21:43.197Z,9.38
2023-04-27T21:24:09.819Z,9.31
2023-04-27T21:26:36.596Z,9.19
2023-04-27T21:29:05.559Z,9.19
2023-04-27T21:31:32.989Z,9.25
2023-04-27T21:33:59.602Z,9.25
2023-04-27T21:36:26.210Z,9.31
2023-04-27T21:38:52.729Z,9.38
2023-04-27T21:41:19.259Z,9.38
2023-04-27T21:43:46.120Z,9.44
2023-04-27T21:46:12.694Z,9.50
2023-04-27T21:48:39.228Z,9.56
2023-04-27T21:51:05.938Z,9.56
2023-04-27T21:53:32.564Z,9.25
2023-04-27T21:55:59.440Z,9.25
2023-04-27T21:58:26.222Z,9.19
2023-04-27T22:00:52.802Z,9.25
2023-04-27T22:03:19.579Z,9.50
2023-04-27T22:05:48.810Z,9.31
2023-04-27T22:08:17.389Z,9.13
2023-04-27T22:10:44.806Z,9.31
2023-04-27T22:13:18.686Z,9.31
2023-04-27T22:15:47.340Z,9.38
2023-04-27T22:18:15.498Z,9.44
2023-04-27T22:20:43.208Z,9.31
2023-04-27T22:23:10.013Z,9.44
2023-04-27T22:25:37.040Z,9.38
2023-04-27T22:28:03.619Z,9.38
2023-04-27T22:30:30.897Z,9.38
2023-04-27T22:32:57.669Z,9.31
2023-04-27T22:35:27.545Z,9.19
2023-04-27T22:37:55.755Z,9.31
2023-04-27T22:40:22.468Z,9.31
2023-04-27T22:42:49.039Z,9.38
2023-04-27T22:45:16.250Z,9.31
2023-04-27T22:47:44.436Z,9.38
2023-04-27T22:50:12.398Z,9.38
2023-04-27T22:52:41.922Z,9.31
2023-04-27T22:55:08.987Z,9.31
2023-04-27T22:57:35.829Z,9.38
2023-04-27T23:00:05.192Z,9.25
2023-04-27T23:02:32.003Z,9.31
2023-04-27T23:04:58.897Z,9.31
2023-04-27T23:07:25.412Z,9.31
2023-04-27T23:09:52.682Z,9.25
2023-04-27T23:12:20.678Z,9.25
2023-04-27T23:14:47.320Z,9.19
2023-04-27T23:17:15.449Z,9.19
2023-04-27T23:19:42.222Z,9.19
2023-04-27T23:22:08.769Z,9.19
2023-04-27T23:24:35.334Z,9.19
2023-04-27T23:27:02.008Z,9.19
2023-04-27T23:29:28.627Z,9.25
2023-04-27T23:31:55.337Z,9.13
2023-04-27T23:34:21.940Z,9.13
2023-04-27T23:36:48.580Z,9.19
2023-04-27T23:39:15.093Z,9.00
2023-04-27T23:41:41.896Z,9.00
2023-04-27T23:44:08.445Z,9.06
2023-04-27T23:46:35.264Z,9.06
2023-04-27T23:49:01.971Z,9.06
2023-04-27T23:51:28.531Z,9.00
2023-04-27T23:53:55.283Z,8.94
2023-04-27T23:56:23.095Z,8.94
2023-04-27T23:58:50.023Z,9.00
